createdAt,value
2022-11-28T00:00:06.433Z,10.63
2022-11-28T00:02:33.087Z,10.63
2022-11-28T00:04:59.683Z,10.63
2022-11-28T00:07:26.521Z,10.64
2022-11-28T00:09:53.167Z,10.67
2022-11-28T00:12:19.713Z,10.62
2022-11-28T00:14:46.465Z,10.60
2022-11-28T00:17:13.015Z,10.57
2022-11-28T00:19:39.571Z,10.53
2022-11-28T00:22:06.249Z,10.53
2022-11-28T00:24:32.803Z,10.53
2022-11-28T00:26:59.485Z,10.54
2022-11-28T00:29:26.202Z,10.56
2022-11-28T00:31:52.775Z,10.60
2022-11-28T00:34:19.471Z,10.62
2022-11-28T00:36:46.992Z,10.63
2022-11-28T00:39:14.694Z,10.66
2022-11-28T00:41:41.282Z,10.70
2022-11-28T00:44:07.974Z,10.73
2022-11-28T00:46:34.559Z,10.74
2022-11-28T00:49:01.229Z,10.77
2022-11-28T00:51:31.519Z,10.80
2022-11-28T00:53:59.511Z,10.77
2022-11-28T00:56:29.784Z,10.76
2022-11-28T00:58:56.868Z,10.71
2022-11-28T01:01:26.498Z,10.71
2022-11-28T01:03:54.374Z,10.72
2022-11-28T01:06:29.139Z,10.75
2022-11-28T01:08:58.242Z,10.76
2022-11-28T01:11:25.256Z,10.78
2022-11-28T01:13:55.988Z,10.80
2022-11-28T01:16:23.066Z,10.80
2022-11-28T01:18:49.967Z,10.80
2022-11-28T01:21:16.784Z,10.78
2022-11-28T01:23:43.379Z,10.79
2022-11-28T01:26:12.559Z,10.80
2022-11-28T01:28:39.197Z,10.80
2022-11-28T01:31:07.619Z,10.79
2022-11-28T01:33:34.175Z,10.81
2022-11-28T01:36:01.050Z,10.80
2022-11-28T01:38:27.954Z,10.83
2022-11-28T01:40:55.727Z,10.87
2022-11-28T01:43:23.459Z,10.88
2022-11-28T01:45:50.008Z,10.88
2022-11-28T01:48:22.866Z,10.92
2022-11-28T01:50:51.602Z,10.93
2022-11-28T01:53:18.364Z,10.94
2022-11-28T01:56:02.623Z,10.94
2022-11-28T01:58:30.623Z,10.94
2022-11-28T02:00:57.260Z,10.97
2022-11-28T02:03:28.049Z,10.99
2022-11-28T02:05:54.870Z,10.99
2022-11-28T02:08:21.426Z,11.01
2022-11-28T02:11:04.033Z,11.05
2022-11-28T02:13:49.392Z,11.05
2022-11-28T02:16:18.968Z,11.06
2022-11-28T02:18:57.437Z,11.07
2022-11-28T02:21:27.734Z,11.09
2022-11-28T02:24:15.912Z,11.07
2022-11-28T02:27:04.392Z,11.07
2022-11-28T02:30:01.272Z,11.05
2022-11-28T02:32:57.704Z,11.05
2022-11-28T02:35:47.179Z,11.03
2022-11-28T02:38:27.470Z,10.98
2022-11-28T02:41:07.303Z,10.94
2022-11-28T02:43:40.881Z,10.93
2022-11-28T02:46:26.277Z,10.93
2022-11-28T02:49:03.769Z,10.94
2022-11-28T02:51:42.485Z,10.95
2022-11-28T02:54:11.416Z,10.98
2022-11-28T02:56:38.302Z,11.01
2022-11-28T02:59:05.372Z,11.01
2022-11-28T03:01:35.226Z,11.05
2022-11-28T03:04:26.813Z,11.09
2022-11-28T03:07:02.043Z,11.09
2022-11-28T03:09:51.290Z,11.12
2022-11-28T03:12:59.130Z,11.13
2022-11-28T03:15:32.280Z,11.15
2022-11-28T03:18:10.495Z,11.20
2022-11-28T03:20:44.741Z,11.23
2022-11-28T03:23:13.922Z,11.25
2022-11-28T03:25:50.307Z,11.24
2022-11-28T03:28:26.716Z,11.22
2022-11-28T03:31:03.556Z,11.17
2022-11-28T03:33:33.654Z,11.15
2022-11-28T03:36:08.866Z,11.13
2022-11-28T03:38:40.323Z,11.12
2022-11-28T03:41:15.843Z,11.12
2022-11-28T03:43:46.991Z,11.13
2022-11-28T03:46:16.917Z,11.15
2022-11-28T03:48:46.994Z,11.16
2022-11-28T03:51:37.298Z,11.18
2022-11-28T03:54:25.285Z,11.19
2022-11-28T03:57:15.192Z,11.18
2022-11-28T03:59:48.055Z,11.20
2022-11-28T04:02:40.229Z,11.23
2022-11-28T04:05:20.402Z,11.19
2022-11-28T04:07:58.477Z,11.20
2022-11-28T04:10:38.584Z,11.20
2022-11-28T04:13:14.769Z,11.21
2022-11-28T04:15:58.819Z,11.22
2022-11-28T04:18:31.987Z,11.26
2022-11-28T04:21:12.163Z,11.27
2022-11-28T04:23:40.883Z,11.26
2022-11-28T04:26:37.660Z,11.28
2022-11-28T04:29:09.419Z,11.30
2022-11-28T04:31:36.960Z,11.31
2022-11-28T04:34:06.623Z,11.34
2022-11-28T04:36:35.051Z,11.35
2022-11-28T04:39:02.238Z,11.36
2022-11-28T04:41:34.689Z,11.39
2022-11-28T04:44:15.120Z,11.42
2022-11-28T04:46:47.324Z,11.45
2022-11-28T04:49:14.177Z,11.45
2022-11-28T04:51:54.977Z,11.48
2022-11-28T04:54:42.031Z,11.50
2022-11-28T04:57:19.391Z,11.52
2022-11-28T04:59:46.577Z,11.52
2022-11-28T05:02:13.682Z,11.53
2022-11-28T05:04:40.988Z,11.53
2022-11-28T05:07:08.684Z,11.53
2022-11-28T05:09:35.897Z,11.53
2022-11-28T05:12:03.054Z,11.53
2022-11-28T05:14:29.676Z,11.52
2022-11-28T05:16:56.216Z,11.52
2022-11-28T05:19:23.226Z,11.51
2022-11-28T05:21:49.819Z,11.52
2022-11-28T05:24:16.485Z,11.52
2022-11-28T05:26:43.444Z,11.52
2022-11-28T05:29:10.019Z,11.53
2022-11-28T05:31:37.513Z,11.50
2022-11-28T05:34:04.122Z,11.50
2022-11-28T05:36:30.719Z,11.51
2022-11-28T05:38:57.336Z,11.53
2022-11-28T05:41:31.775Z,11.55
2022-11-28T05:43:58.958Z,11.56
2022-11-28T05:46:26.097Z,11.57
2022-11-28T05:48:52.800Z,11.56
2022-11-28T05:51:19.901Z,11.58
2022-11-28T05:53:46.452Z,11.61
2022-11-28T05:56:16.474Z,11.62
2022-11-28T05:58:43.576Z,11.61
2022-11-28T06:01:17.202Z,11.59
2022-11-28T06:03:44.407Z,11.57
2022-11-28T06:06:20.852Z,11.57
2022-11-28T06:08:48.658Z,11.56
2022-11-28T06:11:15.957Z,11.57
2022-11-28T06:13:43.602Z,11.58
2022-11-28T06:16:12.078Z,11.59
2022-11-28T06:18:39.421Z,11.60
2022-11-28T06:21:07.596Z,11.60
2022-11-28T06:23:34.163Z,11.60
2022-11-28T06:26:06.454Z,11.60
2022-11-28T06:28:33.757Z,11.61
2022-11-28T06:31:00.373Z,11.60
2022-11-28T06:33:26.919Z,11.62
2022-11-28T06:35:59.827Z,11.67
2022-11-28T06:38:26.375Z,11.68
2022-11-28T06:40:56.715Z,11.70
2022-11-28T06:43:23.412Z,11.71
2022-11-28T06:45:49.965Z,11.69
2022-11-28T06:48:16.506Z,11.68
2022-11-28T06:50:43.032Z,11.66
2022-11-28T06:53:09.547Z,11.64
2022-11-28T06:55:36.223Z,11.62
2022-11-28T06:58:02.815Z,11.60
2022-11-28T07:00:29.377Z,11.60
2022-11-28T07:02:56.219Z,11.60
2022-11-28T07:05:22.952Z,11.58
2022-11-28T07:07:54.260Z,11.58
2022-11-28T07:10:21.762Z,11.57
2022-11-28T07:12:56.607Z,11.60
2022-11-28T07:15:23.592Z,11.58
2022-11-28T07:17:50.345Z,11.58
2022-11-28T07:20:17.638Z,11.59
2022-11-28T07:22:46.848Z,11.60
2022-11-28T07:25:14.870Z,11.62
2022-11-28T07:27:42.184Z,11.64
2022-11-28T07:30:10.104Z,11.66
2022-11-28T07:32:39.630Z,11.68
2022-11-28T07:35:08.329Z,11.70
2022-11-28T07:37:35.118Z,11.73
2022-11-28T07:40:01.772Z,11.74
2022-11-28T07:42:28.367Z,11.77
2022-11-28T07:44:54.938Z,11.79
2022-11-28T07:47:22.089Z,11.80
2022-11-28T07:49:48.603Z,11.83
2022-11-28T07:52:15.368Z,11.84
2022-11-28T07:54:42.133Z,11.86
2022-11-28T07:57:13.211Z,11.89
2022-11-28T07:59:40.325Z,11.90
2022-11-28T08:02:07.394Z,11.89
2022-11-28T08:04:34.179Z,11.92
2022-11-28T08:07:00.667Z,11.92
2022-11-28T08:09:27.206Z,11.93
2022-11-28T08:11:56.379Z,11.96
2022-11-28T08:14:23.254Z,11.97
2022-11-28T08:16:49.822Z,11.98
2022-11-28T08:19:16.590Z,12.01
2022-11-28T08:21:43.276Z,12.02
2022-11-28T08:24:11.114Z,12.03
2022-11-28T08:26:38.199Z,12.01
2022-11-28T08:29:04.782Z,12.01
2022-11-28T08:31:34.067Z,12.05
2022-11-28T08:34:02.278Z,12.05
2022-11-28T08:36:29.530Z,12.07
2022-11-28T08:39:16.663Z,12.07
2022-11-28T08:41:43.315Z,12.07
2022-11-28T08:44:09.946Z,12.09
2022-11-28T08:46:36.727Z,12.10
2022-11-28T08:49:04.734Z,12.09
2022-11-28T08:51:31.835Z,12.09
2022-11-28T08:53:59.846Z,12.12
2022-11-28T08:56:27.190Z,12.14
2022-11-28T08:58:54.467Z,12.14
2022-11-28T09:01:23.051Z,12.13
2022-11-28T09:03:49.939Z,12.15
2022-11-28T09:06:17.211Z,12.19
2022-11-28T09:08:44.453Z,12.22
2022-11-28T09:11:13.316Z,12.26
2022-11-28T09:13:40.174Z,12.30
2022-11-28T09:16:07.493Z,12.33
2022-11-28T09:18:34.147Z,12.38
2022-11-28T09:21:01.818Z,12.44
2022-11-28T09:23:29.225Z,12.47
2022-11-28T09:25:56.514Z,12.50
2022-11-28T09:28:23.944Z,12.51
2022-11-28T09:30:50.503Z,12.54
2022-11-28T09:33:17.030Z,12.58
2022-11-28T09:35:43.603Z,12.63
2022-11-28T09:38:10.069Z,12.67
2022-11-28T09:40:42.732Z,12.70
2022-11-28T09:43:38.640Z,12.75
2022-11-28T09:46:10.061Z,12.80
2022-11-28T09:48:43.406Z,12.86
2022-11-28T09:51:22.620Z,12.92
2022-11-28T09:54:27.737Z,13.00
2022-11-28T09:56:54.407Z,13.03
2022-11-28T09:59:25.861Z,13.07
2022-11-28T10:02:13.735Z,13.11
2022-11-28T10:04:51.635Z,13.14
2022-11-28T10:07:55.184Z,13.18
2022-11-28T10:10:35.295Z,13.22
2022-11-28T10:13:23.089Z,13.26
2022-11-28T10:16:15.730Z,13.30
2022-11-28T10:18:52.609Z,13.33
2022-11-28T10:21:35.677Z,13.38
2022-11-28T10:24:05.694Z,13.42
2022-11-28T10:26:41.764Z,13.39
2022-11-28T10:29:34.710Z,13.44
2022-11-28T10:32:03.962Z,13.47
2022-11-28T10:34:49.143Z,13.51
2022-11-28T10:37:24.996Z,13.55
2022-11-28T10:39:52.211Z,13.57
2022-11-28T10:42:23.648Z,13.58
2022-11-28T10:44:57.645Z,13.62
2022-11-28T10:47:39.683Z,13.66
2022-11-28T10:50:32.046Z,13.64
2022-11-28T10:53:02.387Z,13.67
2022-11-28T10:55:37.875Z,13.66
2022-11-28T10:58:14.930Z,13.66
2022-11-28T11:00:45.241Z,13.62
2022-11-28T11:03:14.110Z,13.60
2022-11-28T11:05:41.447Z,13.62
2022-11-28T11:08:10.758Z,13.64
2022-11-28T11:10:44.363Z,13.66
2022-11-28T11:13:23.696Z,13.66
2022-11-28T11:15:58.871Z,13.67
2022-11-28T11:18:29.531Z,13.69
2022-11-28T11:21:15.735Z,13.72
2022-11-28T11:23:42.747Z,13.74
2022-11-28T11:26:26.430Z,13.75
2022-11-28T11:28:53.298Z,13.77
2022-11-28T11:31:26.664Z,13.79
2022-11-28T11:34:02.872Z,13.79
2022-11-28T11:36:32.499Z,13.80
2022-11-28T11:39:11.392Z,13.85
2022-11-28T11:41:40.099Z,13.88
2022-11-28T11:44:15.840Z,13.91
2022-11-28T11:47:05.401Z,13.90
2022-11-28T11:49:39.329Z,13.89
2022-11-28T11:52:14.618Z,13.84
2022-11-28T11:54:47.166Z,13.80
2022-11-28T12:00:07.941Z,13.81
2022-11-28T12:02:46.886Z,13.76
2022-11-28T12:05:17.107Z,13.72
2022-11-28T12:07:46.672Z,13.69
2022-11-28T12:10:17.329Z,13.73
2022-11-28T12:12:43.812Z,13.74
2022-11-28T12:15:33.066Z,13.73
2022-11-28T12:18:15.733Z,13.71
2022-11-28T12:20:48.724Z,13.73
2022-11-28T12:23:17.579Z,13.76
2022-11-28T12:25:44.368Z,13.77
2022-11-28T12:28:23.121Z,13.76
2022-11-28T12:31:15.348Z,13.76
2022-11-28T12:33:45.004Z,13.75
2022-11-28T12:36:42.097Z,13.73
2022-11-28T12:39:18.622Z,13.73
2022-11-28T12:42:13.167Z,13.75
2022-11-28T12:44:55.093Z,13.72
2022-11-28T12:47:37.905Z,13.70
2022-11-28T12:50:15.179Z,13.69
2022-11-28T12:53:18.779Z,13.69
2022-11-28T12:56:03.655Z,13.62
2022-11-28T12:58:35.531Z,13.57
2022-11-28T13:01:13.517Z,13.57
2022-11-28T13:04:17.740Z,13.52
2022-11-28T13:07:02.607Z,13.51
2022-11-28T13:09:38.149Z,13.54
2022-11-28T13:12:28.513Z,13.50
2022-11-28T13:14:57.014Z,13.45
2022-11-28T13:17:48.451Z,13.40
2022-11-28T13:20:22.739Z,13.40
2022-11-28T13:22:55.028Z,13.42
2022-11-28T13:25:47.807Z,13.36
2022-11-28T13:28:36.291Z,13.30
2022-11-28T13:31:07.349Z,13.31
2022-11-28T13:33:56.332Z,13.40
2022-11-28T13:40:03.439Z,13.50
2022-11-28T13:45:39.142Z,13.51
2022-11-28T13:48:57.417Z,13.48
2022-11-28T13:51:30.975Z,13.49
2022-11-28T13:54:17.546Z,13.50
2022-11-28T13:57:05.485Z,13.52
2022-11-28T13:59:32.521Z,13.55
2022-11-28T14:02:05.798Z,13.57
2022-11-28T14:04:33.013Z,13.61
2022-11-28T14:07:02.893Z,13.59
2022-11-28T14:09:53.748Z,13.54
2022-11-28T14:12:29.865Z,13.52
2022-11-28T14:15:07.259Z,13.47
2022-11-28T14:17:45.853Z,13.39
2022-11-28T14:20:32.754Z,13.36
2022-11-28T14:23:05.425Z,13.34
2022-11-28T14:25:34.346Z,13.37
2022-11-28T14:28:06.274Z,13.42
2022-11-28T14:30:37.371Z,13.44
2022-11-28T14:33:21.279Z,13.45
2022-11-28T14:35:50.867Z,13.44
2022-11-28T14:38:33.766Z,13.42
2022-11-28T14:41:05.788Z,13.41
2022-11-28T14:43:48.212Z,13.43
2022-11-28T14:46:20.776Z,13.44
2022-11-28T14:48:59.681Z,13.45
2022-11-28T14:51:56.518Z,13.46
2022-11-28T14:54:37.833Z,13.43
2022-11-28T14:57:13.578Z,13.41
2022-11-28T14:59:40.174Z,13.39
2022-11-28T15:02:12.818Z,13.37
2022-11-28T15:04:57.869Z,13.36
2022-11-28T15:07:34.562Z,13.32
2022-11-28T15:10:09.941Z,13.29
2022-11-28T15:12:58.834Z,13.26
2022-11-28T15:15:25.509Z,13.25
2022-11-28T15:17:53.799Z,13.24
2022-11-28T15:20:28.457Z,13.24
2022-11-28T15:22:55.003Z,13.23
2022-11-28T15:25:35.346Z,13.20
2022-11-28T15:28:15.180Z,13.16
2022-11-28T15:30:47.312Z,13.15
2022-11-28T15:33:14.401Z,13.14
2022-11-28T15:35:55.367Z,13.13
2022-11-28T15:38:21.988Z,13.10
2022-11-28T15:40:52.958Z,13.12
2022-11-28T15:43:19.980Z,13.09
2022-11-28T15:45:50.774Z,13.08
2022-11-28T15:48:40.062Z,13.05
2022-11-28T15:51:08.551Z,13.04
2022-11-28T15:53:40.516Z,13.06
2022-11-28T15:56:07.701Z,13.07
2022-11-28T15:58:34.390Z,13.10
2022-11-28T16:01:13.010Z,13.12
2022-11-28T16:03:49.955Z,13.15
2022-11-28T16:06:18.002Z,13.16
2022-11-28T16:08:51.857Z,13.17
2022-11-28T16:11:20.086Z,13.16
2022-11-28T16:13:47.393Z,13.16
2022-11-28T16:16:19.771Z,13.13
2022-11-28T16:18:53.553Z,13.12
2022-11-28T16:21:26.647Z,13.13
2022-11-28T16:23:53.170Z,13.13
2022-11-28T16:26:30.001Z,13.11
2022-11-28T16:29:03.797Z,13.11
2022-11-28T16:31:30.756Z,13.09
2022-11-28T16:33:58.082Z,13.07
2022-11-28T16:36:36.388Z,13.06
2022-11-28T16:39:10.760Z,13.06
2022-11-28T16:41:43.080Z,13.05
2022-11-28T16:44:15.175Z,13.04
2022-11-28T16:46:55.355Z,13.01
2022-11-28T16:49:38.722Z,12.99
2022-11-28T16:52:26.223Z,13.00
2022-11-28T16:54:54.021Z,13.02
2022-11-28T16:57:20.902Z,13.04
2022-11-28T16:59:49.223Z,13.05
2022-11-28T17:02:20.468Z,13.05
2022-11-28T17:04:48.156Z,13.02
2022-11-28T17:07:17.172Z,12.97
2022-11-28T17:09:45.689Z,12.95
2022-11-28T17:12:30.224Z,12.93
2022-11-28T17:14:58.289Z,12.92
2022-11-28T17:17:25.280Z,12.92
2022-11-28T17:19:52.251Z,12.88
2022-11-28T17:22:24.120Z,12.84
2022-11-28T17:24:51.832Z,12.80
2022-11-28T17:27:18.481Z,12.79
2022-11-28T17:29:45.158Z,12.77
2022-11-28T17:32:13.524Z,12.78
2022-11-28T17:34:42.040Z,12.77
2022-11-28T17:37:09.389Z,12.77
2022-11-28T17:39:35.959Z,12.76
2022-11-28T17:42:02.627Z,12.75
2022-11-28T17:44:34.451Z,12.76
2022-11-28T17:47:02.225Z,12.75
2022-11-28T17:49:29.547Z,12.77
2022-11-28T17:51:56.724Z,12.76
2022-11-28T17:54:24.756Z,12.76
2022-11-28T17:56:52.631Z,12.73
2022-11-28T17:59:22.035Z,12.72
2022-11-28T18:01:48.757Z,12.70
2022-11-28T18:04:17.950Z,12.71
2022-11-28T18:06:45.794Z,12.71
2022-11-28T18:09:13.260Z,12.71
2022-11-28T18:11:41.004Z,12.69
2022-11-28T18:14:08.054Z,12.68
2022-11-28T18:16:36.400Z,12.69
2022-11-28T18:19:04.217Z,12.68
2022-11-28T18:21:31.357Z,12.65
2022-11-28T18:23:58.073Z,12.63
2022-11-28T18:26:26.065Z,12.59
2022-11-28T18:28:52.939Z,12.56
2022-11-28T18:31:25.304Z,12.52
2022-11-28T18:33:56.141Z,12.50
2022-11-28T18:36:27.306Z,12.49
2022-11-28T18:39:07.421Z,12.45
2022-11-28T18:41:34.047Z,12.43
2022-11-28T18:44:03.775Z,12.41
2022-11-28T18:46:31.008Z,12.37
2022-11-28T18:48:57.600Z,12.36
2022-11-28T18:51:28.941Z,12.34
2022-11-28T18:53:56.475Z,12.32
2022-11-28T18:56:23.675Z,12.29
2022-11-28T18:58:51.930Z,12.24
2022-11-28T19:01:19.652Z,12.17
2022-11-28T19:03:51.470Z,12.10
2022-11-28T19:06:18.493Z,12.06
2022-11-28T19:08:45.085Z,12.03
2022-11-28T19:11:14.570Z,11.98
2022-11-28T19:13:45.714Z,11.96
2022-11-28T19:16:32.862Z,11.95
2022-11-28T19:19:01.397Z,11.98
2022-11-28T19:21:31.500Z,12.04
2022-11-28T19:23:59.575Z,12.11
2022-11-28T19:26:28.973Z,12.14
2022-11-28T19:28:55.915Z,12.18
2022-11-28T19:31:26.999Z,12.21
2022-11-28T19:34:04.225Z,12.25
2022-11-28T19:36:32.895Z,12.28
2022-11-28T19:39:00.286Z,12.28
2022-11-28T19:41:27.999Z,12.24
2022-11-28T19:43:54.570Z,12.22
2022-11-28T19:46:21.358Z,12.22
2022-11-28T19:48:48.008Z,12.21
2022-11-28T19:51:15.839Z,12.21
2022-11-28T19:53:43.427Z,12.22
2022-11-28T19:56:17.122Z,12.21
2022-11-28T19:58:44.034Z,12.21
2022-11-28T20:01:16.090Z,12.18
2022-11-28T20:03:43.465Z,12.17
2022-11-28T20:06:12.407Z,12.20
2022-11-28T20:08:39.603Z,12.18
2022-11-28T20:11:08.528Z,12.16
2022-11-28T20:13:35.232Z,12.13
2022-11-28T20:16:03.795Z,12.12
2022-11-28T20:18:30.316Z,12.12
2022-11-28T20:21:06.684Z,12.12
2022-11-28T20:23:33.411Z,12.12
2022-11-28T20:26:06.249Z,12.12
2022-11-28T20:28:34.403Z,12.12
2022-11-28T20:31:01.463Z,12.11
2022-11-28T20:33:28.145Z,12.10
2022-11-28T20:36:04.907Z,12.09
2022-11-28T20:38:31.511Z,12.08
2022-11-28T20:41:02.793Z,12.07
2022-11-28T20:43:33.444Z,12.04
2022-11-28T20:46:04.941Z,11.95
2022-11-28T20:48:31.709Z,11.89
2022-11-28T20:50:58.814Z,11.81
2022-11-28T20:53:27.035Z,11.66
2022-11-28T20:56:01.823Z,11.52
2022-11-28T20:58:29.118Z,11.42
2022-11-28T21:00:56.403Z,11.34
2022-11-28T21:03:23.675Z,11.28
2022-11-28T21:05:50.491Z,11.27
2022-11-28T21:08:17.074Z,11.28
2022-11-28T21:10:43.860Z,11.32
2022-11-28T21:13:10.542Z,11.35
2022-11-28T21:15:47.584Z,11.36
2022-11-28T21:18:15.286Z,11.37
2022-11-28T21:20:45.440Z,11.38
2022-11-28T21:23:14.137Z,11.38
2022-11-28T21:25:41.915Z,11.39
2022-11-28T21:28:10.358Z,11.40
2022-11-28T21:30:45.882Z,11.39
2022-11-28T21:33:13.050Z,11.37
2022-11-28T21:35:40.065Z,11.36
2022-11-28T21:38:07.033Z,11.36
2022-11-28T21:40:33.781Z,11.36
2022-11-28T21:43:00.361Z,11.35
2022-11-28T21:45:27.298Z,11.34
2022-11-28T21:47:54.023Z,11.35
2022-11-28T21:50:20.719Z,11.34
2022-11-28T21:52:47.394Z,11.34
2022-11-28T21:55:13.942Z,11.34
2022-11-28T21:57:42.372Z,11.32
2022-11-28T22:00:25.608Z,11.31
2022-11-28T22:03:03.300Z,11.30
2022-11-28T22:05:31.478Z,11.30
2022-11-28T22:07:58.261Z,11.29
2022-11-28T22:10:24.865Z,11.29
2022-11-28T22:12:51.410Z,11.27
2022-11-28T22:15:18.293Z,11.26
2022-11-28T22:17:44.802Z,11.25
2022-11-28T22:20:11.822Z,11.25
2022-11-28T22:22:38.468Z,11.24
2022-11-28T22:25:05.474Z,11.24
2022-11-28T22:27:32.333Z,11.24
2022-11-28T22:29:59.000Z,11.31
2022-11-28T22:32:25.460Z,11.36
2022-11-28T22:34:51.987Z,11.38
2022-11-28T22:37:18.563Z,11.44
2022-11-28T22:39:45.028Z,11.47
2022-11-28T22:42:11.578Z,11.48
2022-11-28T22:44:38.103Z,11.51
2022-11-28T22:47:04.858Z,11.54
2022-11-28T22:49:31.438Z,11.55
2022-11-28T22:51:58.027Z,11.57
2022-11-28T22:54:24.495Z,11.58
2022-11-28T22:56:53.001Z,11.61
2022-11-28T22:59:19.576Z,11.61
2022-11-28T23:01:46.161Z,11.64
2022-11-28T23:04:12.937Z,11.66
2022-11-28T23:06:39.613Z,11.66
2022-11-28T23:09:07.865Z,11.67
2022-11-28T23:11:36.052Z,11.68
2022-11-28T23:14:03.195Z,11.68
2022-11-28T23:16:32.550Z,11.68
2022-11-28T23:19:01.043Z,11.66
2022-11-28T23:21:33.200Z,11.68
2022-11-28T23:23:59.691Z,11.69
2022-11-28T23:26:28.492Z,11.67
2022-11-28T23:28:55.637Z,11.68
2022-11-28T23:31:25.158Z,11.66
2022-11-28T23:33:52.865Z,11.63
2022-11-28T23:36:27.568Z,11.64
2022-11-28T23:38:56.008Z,11.65
2022-11-28T23:41:23.101Z,11.64
2022-11-28T23:43:50.081Z,11.66
2022-11-28T23:46:17.545Z,11.67
2022-11-28T23:48:44.981Z,11.68
2022-11-28T23:51:15.142Z,11.67
2022-11-28T23:53:42.376Z,11.65
2022-11-28T23:56:11.951Z,11.65
2022-11-28T23:58:39.301Z,11.65
